Time,TemperatureF,DewpointF,PressureIn,WindDirection,WindDirectionDegrees,WindSpeedMPH,WindSpeedGustMPH,Humidity,HourlyPrecipIn,Conditions,Clouds,dailyrainin,SoftwareType,DateUTC
2013-05-30 00:01:00,64.4,61.1,30.04,North,355,0.0,0.0,89,0.00,,,0.00,Wunderground v.1.15,2013-05-30 04:01:00,
2013-05-30 00:02:00,64.4,61.1,30.04,NW,307,0.0,0.0,89,0.00,,,0.00,Wunderground v.1.15,2013-05-30 04:02:00,
2013-05-30 00:03:00,64.5,61.2,30.04,West,275,0.0,0.0,89,0.00,,,0.00,Wunderground v.1.15,2013-05-30 04:03:00,
2013-05-30 00:06:00,64.4,61.1,30.04,NNE,29,0.0,0.0,89,0.00,,,0.00,Wunderground v.1.15,2013-05-30 04:06:00,
2013-05-30 00:11:00,64.4,61.1,30.04,South,188,0.0,0.0,89,0.00,,,0.00,Wunderground v.1.15,2013-05-30 04:11:00,
2013-05-30 00:18:00,64.3,61.0,30.03,West,274,0.0,0.0,89,0.00,,,0.00,Wunderground v.1.15,2013-05-30 04:18:00,
2013-05-30 00:21:00,64.3,61.0,30.03,West,269,0.0,0.0,89,0.00,,,0.00,Wunderground v.1.15,2013-05-30 04:21:00,
2013-05-30 00:28:00,64.2,60.9,30.03,West,260,0.0,0.0,89,0.00,,,0.00,Wunderground v.1.15,2013-05-30 04:28:00,
2013-05-30 00:33:00,64.1,60.8,30.03,WNW,289,0.0,0.0,89,0.00,,,0.00,Wunderground v.1.15,2013-05-30 04:33:00,
2013-05-30 00:39:00,64.1,60.8,30.03,West,263,0.0,0.0,89,0.00,,,0.00,Wunderground v.1.15,2013-05-30 04:39:00,
2013-05-30 00:45:00,64.0,60.7,30.02,West,277,0.0,0.0,89,0.00,,,0.00,Wunderground v.1.15,2013-05-30 04:45:00,
2013-05-30 00:51:00,63.9,60.6,30.02,West,281,0.0,0.0,89,0.00,,,0.00,Wunderground v.1.15,2013-05-30 04:51:00,
2013-05-30 00:56:00,63.9,60.6,30.02,WNW,290,0.0,0.0,89,0.00,,,0.00,Wunderground v.1.15,2013-05-30 04:56:00,
2013-05-30 01:03:00,63.8,60.5,30.02,NW,307,0.0,0.0,89,0.00,,,0.00,Wunderground v.1.15,2013-05-30 05:03:00,
2013-05-30 01:09:00,63.8,60.5,30.01,SSW,209,0.0,0.0,89,0.00,,,0.00,Wunderground v.1.15,2013-05-30 05:09:00,
2013-05-30 01:15:00,63.8,60.5,30.01,NW,321,0.0,0.0,89,0.00,,,0.00,Wunderground v.1.15,2013-05-30 05:15:00,
2013-05-30 01:21:00,63.7,60.4,30.01,NW,321,0.0,0.0,89,0.00,,,0.00,Wunderground v.1.15,2013-05-30 05:21:00,
2013-05-30 01:26:00,63.7,60.4,30.01,NW,308,0.0,0.0,89,0.00,,,0.00,Wunderground v.1.15,2013-05-30 05:26:00,
2013-05-30 01:33:00,63.7,60.4,30.02,NW,306,0.0,0.0,89,0.00,,,0.00,Wunderground v.1.15,2013-05-30 05:33:00,
2013-05-30 01:39:00,63.6,60.3,30.01,WNW,302,0.0,0.0,89,0.00,,,0.00,Wunderground v.1.15,2013-05-30 05:39:00,
2013-05-30 01:44:00,63.5,60.2,30.01,WNW,302,0.0,0.0,89,0.00,,,0.00,Wunderground v.1.15,2013-05-30 05:44:00,
2013-05-30 01:51:00,63.3,60.0,30.02,WNW,302,0.0,0.0,89,0.00,,,0.00,Wunderground v.1.15,2013-05-30 05:51:00,
2013-05-30 01:56:00,63.2,59.9,30.02,WNW,302,0.0,0.0,89,0.00,,,0.00,Wunderground v.1.15,2013-05-30 05:56:00,
2013-05-30 02:02:00,63.1,59.8,30.02,WNW,302,0.0,0.0,89,0.00,,,0.00,Wunderground v.1.15,2013-05-30 06:02:00,
2013-05-30 02:08:00,63.0,59.7,30.01,West,271,0.0,0.0,89,0.00,,,0.00,Wunderground v.1.15,2013-05-30 06:08:00,
2013-05-30 02:14:00,62.9,59.6,30.02,WSW,244,0.0,0.0,89,0.00,,,0.00,Wunderground v.1.15,2013-05-30 06:14:00,
2013-05-30 02:20:00,63.0,59.7,30.01,WSW,253,0.0,0.0,89,0.00,,,0.00,Wunderground v.1.15,2013-05-30 06:20:00,
2013-05-30 02:26:00,63.1,59.8,30.01,WSW,254,0.0,0.0,89,0.00,,,0.00,Wunderground v.1.15,2013-05-30 06:26:00,
2013-05-30 02:31:00,62.9,59.6,30.02,WSW,253,0.0,0.0,89,0.00,,,0.00,Wunderground v.1.15,2013-05-30 06:31:00,
2013-05-30 02:37:00,62.8,59.5,30.02,WSW,253,0.0,0.0,89,0.00,,,0.00,Wunderground v.1.15,2013-05-30 06:37:00,
2013-05-30 02:43:00,62.6,59.3,30.02,WSW,253,0.0,0.0,89,0.00,,,0.00,Wunderground v.1.15,2013-05-30 06:43:00,
2013-05-30 02:49:00,62.5,59.2,30.01,WSW,254,0.0,0.0,89,0.00,,,0.00,Wunderground v.1.15,2013-05-30 06:49:00,
2013-05-30 02:55:00,62.4,59.1,30.01,WSW,254,0.0,0.0,89,0.00,,,0.00,Wunderground v.1.15,2013-05-30 06:55:00,
2013-05-30 03:01:00,62.4,59.1,30.01,WSW,254,0.0,0.0,89,0.00,,,0.00,Wunderground v.1.15,2013-05-30 07:01:00,
2013-05-30 03:06:00,62.3,59.0,30.01,WSW,254,0.0,0.0,89,0.00,,,0.00,Wunderground v.1.15,2013-05-30 07:06:00,
2013-05-30 03:12:00,62.2,58.9,30.01,WNW,300,0.0,0.0,89,0.00,,,0.00,Wunderground v.1.15,2013-05-30 07:12:00,
2013-05-30 03:18:00,62.1,58.8,30.01,WNW,283,0.0,0.0,89,0.00,,,0.00,Wunderground v.1.15,2013-05-30 07:18:00,
2013-05-30 03:24:00,62.1,58.8,30.01,NW,311,0.0,0.0,89,0.00,,,0.00,Wunderground v.1.15,2013-05-30 07:24:00,
2013-05-30 03:30:00,62.2,59.2,30.01,NW,322,0.0,0.0,90,0.00,,,0.00,Wunderground v.1.15,2013-05-30 07:30:00,
2013-05-30 03:35:00,62.2,59.2,30.01,NW,322,0.0,0.0,90,0.00,,,0.00,Wunderground v.1.15,2013-05-30 07:35:00,
2013-05-30 03:40:00,62.1,59.1,30.01,NW,322,0.0,0.0,90,0.00,,,0.00,Wunderground v.1.15,2013-05-30 07:40:00,
2013-05-30 03:46:00,62.0,59.0,30.01,NW,322,0.0,0.0,90,0.00,,,0.00,Wunderground v.1.15,2013-05-30 07:46:00,
2013-05-30 03:51:00,61.8,58.8,30.01,NW,322,0.0,0.0,90,0.00,,,0.00,Wunderground v.1.15,2013-05-30 07:51:00,
2013-05-30 03:56:00,61.7,58.7,30.02,NW,322,0.0,0.0,90,0.00,,,0.00,Wunderground v.1.15,2013-05-30 07:56:00,
2013-05-30 04:03:00,61.6,58.6,30.02,NW,321,0.0,0.0,90,0.00,,,0.00,Wunderground v.1.15,2013-05-30 08:03:00,
2013-05-30 04:09:00,61.4,58.4,30.02,NW,322,0.0,0.0,90,0.00,,,0.00,Wunderground v.1.15,2013-05-30 08:09:00,
2013-05-30 04:15:00,61.2,58.2,30.02,NW,321,0.0,0.0,90,0.00,,,0.00,Wunderground v.1.15,2013-05-30 08:15:00,
2013-05-30 04:21:00,61.1,58.1,30.02,NW,317,0.0,0.0,90,0.00,,,0.00,Wunderground v.1.15,2013-05-30 08:21:00,
2013-05-30 04:26:00,61.0,58.0,30.02,NW,317,0.0,0.0,90,0.00,,,0.00,Wunderground v.1.15,2013-05-30 08:26:00,
2013-05-30 04:32:00,60.9,57.9,30.02,WNW,303,0.0,0.0,90,0.00,,,0.00,Wunderground v.1.15,2013-05-30 08:32:00,
2013-05-30 04:37:00,60.9,57.9,30.02,WNW,303,0.0,0.0,90,0.00,,,0.00,Wunderground v.1.15,2013-05-30 08:37:00,
2013-05-30 04:42:00,60.8,57.8,30.02,WNW,299,0.0,0.0,90,0.00,,,0.00,Wunderground v.1.15,2013-05-30 08:42:00,
2013-05-30 04:48:00,61.1,58.1,30.03,WNW,283,0.0,0.0,90,0.00,,,0.00,Wunderground v.1.15,2013-05-30 08:48:00,
2013-05-30 04:53:00,61.5,58.5,30.03,WNW,290,0.0,0.0,90,0.00,,,0.00,Wunderground v.1.15,2013-05-30 08:53:00,
2013-05-30 04:58:00,61.8,58.8,30.03,West,265,0.0,0.0,90,0.00,,,0.00,Wunderground v.1.15,2013-05-30 08:58:00,
2013-05-30 05:06:00,62.0,59.0,30.03,West,271,0.0,0.0,90,0.00,,,0.00,Wunderground v.1.15,2013-05-30 09:06:00,
2013-05-30 05:12:00,62.1,59.1,30.03,WSW,238,0.0,0.0,90,0.00,,,0.00,Wunderground v.1.15,2013-05-30 09:12:00,
2013-05-30 05:17:00,62.2,59.2,30.03,SW,229,0.0,0.0,90,0.00,,,0.00,Wunderground v.1.15,2013-05-30 09:17:00,
2013-05-30 05:23:00,62.3,59.3,30.03,NW,309,0.0,0.0,90,0.00,,,0.00,Wunderground v.1.15,2013-05-30 09:23:00,
2013-05-30 05:28:00,62.5,59.5,30.03,WSW,245,0.0,0.0,90,0.00,,,0.00,Wunderground v.1.15,2013-05-30 09:28:00,
2013-05-30 05:34:00,62.5,59.5,30.03,West,269,0.0,0.0,90,0.00,,,0.00,Wunderground v.1.15,2013-05-30 09:34:00,
2013-05-30 05:39:00,62.5,59.5,30.03,NNW,328,0.0,0.0,90,0.00,,,0.00,Wunderground v.1.15,2013-05-30 09:39:00,
2013-05-30 05:46:00,62.5,59.5,30.03,NW,310,0.0,0.0,90,0.00,,,0.00,Wunderground v.1.15,2013-05-30 09:46:00,
2013-05-30 05:52:00,62.5,59.5,30.03,WNW,284,0.0,0.0,90,0.00,,,0.00,Wunderground v.1.15,2013-05-30 09:52:00,
2013-05-30 05:58:00,62.6,59.6,30.04,WNW,290,0.0,0.0,90,0.00,,,0.00,Wunderground v.1.15,2013-05-30 09:58:00,
2013-05-30 06:03:00,62.6,60.2,30.04,WNW,287,0.0,0.0,92,0.00,,,0.00,Wunderground v.1.15,2013-05-30 10:03:00,
2013-05-30 06:08:00,62.7,59.7,30.03,WNW,289,0.0,0.0,90,0.00,,,0.00,Wunderground v.1.15,2013-05-30 10:08:00,
2013-05-30 06:13:00,62.8,59.8,30.04,WNW,292,0.0,0.0,90,0.00,,,0.00,Wunderground v.1.15,2013-05-30 10:13:00,
2013-05-30 06:18:00,62.9,59.9,30.04,WNW,297,0.0,0.0,90,0.00,,,0.00,Wunderground v.1.15,2013-05-30 10:18:00,
2013-05-30 06:24:00,63.0,60.0,30.04,North,355,0.0,0.0,90,0.00,,,0.00,Wunderground v.1.15,2013-05-30 10:24:00,
2013-05-30 06:30:00,63.1,60.1,30.05,NNW,336,0.0,0.0,90,0.00,,,0.00,Wunderground v.1.15,2013-05-30 10:30:00,
2013-05-30 06:36:00,63.2,60.2,30.05,North,349,0.0,0.0,90,0.00,,,0.00,Wunderground v.1.15,2013-05-30 10:36:00,
2013-05-30 06:42:00,63.3,60.9,30.05,WNW,290,0.0,0.0,92,0.00,,,0.00,Wunderground v.1.15,2013-05-30 10:42:00,
2013-05-30 06:50:00,63.6,60.9,30.05,NW,315,0.0,0.0,91,0.00,,,0.00,Wunderground v.1.15,2013-05-30 10:50:00,
2013-05-30 06:56:00,63.7,60.7,30.05,North,360,0.0,0.0,90,0.00,,,0.00,Wunderground v.1.15,2013-05-30 10:56:00,
2013-05-30 07:01:00,63.9,60.9,30.04,West,266,0.0,0.0,90,0.00,,,0.00,Wunderground v.1.15,2013-05-30 11:01:00,
2013-05-30 07:06:00,64.2,61.2,30.05,NNE,17,0.0,0.0,90,0.00,,,0.00,Wunderground v.1.15,2013-05-30 11:06:00,
2013-05-30 07:12:00,64.4,61.4,30.05,WNW,292,0.0,0.0,90,0.00,,,0.00,Wunderground v.1.15,2013-05-30 11:12:00,
2013-05-30 07:18:00,64.6,61.6,30.05,NW,314,0.0,0.0,90,0.00,,,0.00,Wunderground v.1.15,2013-05-30 11:18:00,
2013-05-30 07:24:00,64.9,61.9,30.05,East,96,0.0,0.0,90,0.00,,,0.00,Wunderground v.1.15,2013-05-30 11:24:00,
2013-05-30 07:30:00,65.3,62.3,30.05,WNW,284,0.0,0.0,90,0.00,,,0.00,Wunderground v.1.15,2013-05-30 11:30:00,
2013-05-30 07:36:00,65.6,62.6,30.05,North,360,0.0,0.0,90,0.00,,,0.00,Wunderground v.1.15,2013-05-30 11:36:00,
2013-05-30 07:42:00,66.0,62.7,30.05,West,269,0.0,0.0,89,0.00,,,0.00,Wunderground v.1.15,2013-05-30 11:42:00,
2013-05-30 07:48:00,66.4,63.4,30.05,NW,306,0.0,0.0,90,0.00,,,0.00,Wunderground v.1.15,2013-05-30 11:48:00,
2013-05-30 07:53:00,66.7,63.4,30.05,WNW,292,0.0,0.0,89,0.00,,,0.00,Wunderground v.1.15,2013-05-30 11:53:00,
2013-05-30 07:58:00,67.0,64.0,30.05,NW,307,0.0,0.0,90,0.00,,,0.00,Wunderground v.1.15,2013-05-30 11:58:00,
2013-05-30 08:06:00,67.5,64.1,30.06,WNW,298,0.0,0.0,89,0.00,,,0.00,Wunderground v.1.15,2013-05-30 12:06:00,
2013-05-30 08:11:00,67.9,64.5,30.06,NNW,329,0.0,0.0,89,0.00,,,0.00,Wunderground v.1.15,2013-05-30 12:11:00,
2013-05-30 08:18:00,68.3,64.9,30.06,SW,231,0.0,0.0,89,0.00,,,0.00,Wunderground v.1.15,2013-05-30 12:18:00,
2013-05-30 08:24:00,68.7,65.3,30.06,NNW,340,0.0,0.0,89,0.00,,,0.00,Wunderground v.1.15,2013-05-30 12:24:00,
2013-05-30 08:31:00,69.4,66.0,30.06,NNW,344,0.0,0.0,89,0.00,,,0.00,Wunderground v.1.15,2013-05-30 12:31:00,
2013-05-30 08:36:00,70.0,66.6,30.06,NW,319,0.0,0.0,89,0.00,,,0.00,Wunderground v.1.15,2013-05-30 12:36:00,
2013-05-30 08:43:00,70.5,67.1,30.07,WNW,292,0.0,0.0,89,0.00,,,0.00,Wunderground v.1.15,2013-05-30 12:43:00,
2013-05-30 08:48:00,71.0,67.3,30.07,WSW,257,0.0,0.0,88,0.00,,,0.00,Wunderground v.1.15,2013-05-30 12:48:00,
2013-05-30 08:53:00,71.3,67.6,30.07,WNW,286,0.0,0.0,88,0.00,,,0.00,Wunderground v.1.15,2013-05-30 12:53:00,
2013-05-30 08:59:00,71.7,67.6,30.07,NW,310,0.0,0.0,87,0.00,,,0.00,Wunderground v.1.15,2013-05-30 12:59:00,
2013-05-30 09:06:00,72.2,68.1,30.07,West,280,0.0,0.0,87,0.00,,,0.00,Wunderground v.1.15,2013-05-30 13:06:00,
2013-05-30 09:12:00,72.7,68.9,30.07,West,280,0.0,0.0,88,0.00,,,0.00,Wunderground v.1.15,2013-05-30 13:12:00,
2013-05-30 09:18:00,73.1,69.0,30.07,North,355,0.0,0.0,87,0.00,,,0.00,Wunderground v.1.15,2013-05-30 13:18:00,
2013-05-30 09:23:00,73.6,68.8,30.06,WNW,302,0.0,0.0,85,0.00,,,0.00,Wunderground v.1.15,2013-05-30 13:23:00,
2013-05-30 09:28:00,74.0,69.2,30.06,NNW,329,0.0,0.0,85,0.00,,,0.00,Wunderground v.1.15,2013-05-30 13:28:00,
2013-05-30 09:33:00,74.4,69.6,30.06,WNW,297,0.0,0.0,85,0.00,,,0.00,Wunderground v.1.15,2013-05-30 13:33:00,
2013-05-30 09:38:00,74.8,69.6,30.06,WNW,294,0.0,0.0,84,0.00,,,0.00,Wunderground v.1.15,2013-05-30 13:38:00,
2013-05-30 09:44:00,75.1,69.6,30.06,WNW,291,0.0,0.0,83,0.00,,,0.00,Wunderground v.1.15,2013-05-30 13:44:00,
2013-05-30 09:49:00,75.5,70.3,30.06,West,277,0.0,0.0,84,0.00,,,0.00,Wunderground v.1.15,2013-05-30 13:49:00,
2013-05-30 09:55:00,75.9,70.0,30.06,West,281,0.0,0.0,82,0.00,,,0.00,Wunderground v.1.15,2013-05-30 13:55:00,
2013-05-30 10:01:00,76.2,69.9,30.06,NNW,336,0.0,0.0,81,0.00,,,0.00,Wunderground v.1.15,2013-05-30 14:01:00,
2013-05-30 10:06:00,76.7,70.8,30.06,West,260,0.0,0.0,82,0.00,,,0.00,Wunderground v.1.15,2013-05-30 14:06:00,
2013-05-30 10:12:00,77.1,71.2,30.06,NW,310,0.0,0.0,82,0.00,,,0.00,Wunderground v.1.15,2013-05-30 14:12:00,
2013-05-30 10:18:00,77.6,70.9,30.06,WNW,302,0.0,0.0,80,0.00,,,0.00,Wunderground v.1.15,2013-05-30 14:18:00,
2013-05-30 10:23:00,78.1,71.1,30.06,SW,222,0.0,0.0,79,0.00,,,0.00,Wunderground v.1.15,2013-05-30 14:23:00,
2013-05-30 10:29:00,78.7,70.5,30.06,NNW,344,0.0,0.0,76,0.00,,,0.00,Wunderground v.1.15,2013-05-30 14:29:00,
2013-05-30 10:36:00,78.9,70.3,30.06,West,266,0.0,0.0,75,0.00,,,0.00,Wunderground v.1.15,2013-05-30 14:36:00,
2013-05-30 10:42:00,79.4,71.6,30.06,WNW,282,0.0,0.0,77,0.00,,,0.00,Wunderground v.1.15,2013-05-30 14:42:00,
2013-05-30 10:48:00,79.8,69.6,30.06,North,11,0.0,0.0,71,0.00,,,0.00,Wunderground v.1.15,2013-05-30 14:48:00,
2013-05-30 10:53:00,79.9,69.7,30.06,NE,51,0.0,0.0,71,0.00,,,0.00,Wunderground v.1.15,2013-05-30 14:53:00,
2013-05-30 10:58:00,80.0,70.6,30.06,SW,229,0.0,0.0,73,0.00,,,0.00,Wunderground v.1.15,2013-05-30 14:58:00,
2013-05-30 11:04:00,80.3,69.6,30.05,South,180,0.0,0.0,70,0.00,,,0.00,Wunderground v.1.15,2013-05-30 15:04:00,
2013-05-30 11:10:00,80.9,70.2,30.05,North,360,0.0,0.0,70,0.00,,,0.00,Wunderground v.1.15,2013-05-30 15:10:00,
2013-05-30 11:16:00,81.0,69.4,30.05,NW,307,0.0,0.0,68,0.00,,,0.00,Wunderground v.1.15,2013-05-30 15:16:00,
2013-05-30 11:22:00,81.2,69.6,30.06,WNW,292,0.0,0.0,68,0.00,,,0.00,Wunderground v.1.15,2013-05-30 15:22:00,
2013-05-30 11:28:00,81.4,71.5,30.06,NW,323,0.0,0.0,72,0.00,,,0.00,Wunderground v.1.15,2013-05-30 15:28:00,
2013-05-30 11:33:00,82.0,71.7,30.06,West,269,0.0,0.0,71,0.00,,,0.00,Wunderground v.1.15,2013-05-30 15:33:00,
2013-05-30 11:38:00,82.3,69.8,30.06,NW,321,0.0,0.0,66,0.00,,,0.00,Wunderground v.1.15,2013-05-30 15:38:00,
2013-05-30 11:43:00,82.6,71.0,30.06,West,277,0.0,0.0,68,0.00,,,0.00,Wunderground v.1.15,2013-05-30 15:43:00,
2013-05-30 11:50:00,82.8,69.4,30.05,NE,49,0.0,0.0,64,0.00,,,0.00,Wunderground v.1.15,2013-05-30 15:50:00,
2013-05-30 11:56:00,82.8,69.4,30.05,NW,319,0.0,0.0,64,0.00,,,0.00,Wunderground v.1.15,2013-05-30 15:56:00,
2013-05-30 12:02:00,82.7,70.2,30.05,NE,35,0.0,0.0,66,0.00,,,0.00,Wunderground v.1.15,2013-05-30 16:02:00,
2013-05-30 12:08:00,83.1,69.2,30.05,West,275,0.0,0.0,63,0.00,,,0.00,Wunderground v.1.15,2013-05-30 16:08:00,
2013-05-30 12:13:00,83.2,70.7,30.05,SW,222,0.0,0.0,66,0.00,,,0.00,Wunderground v.1.15,2013-05-30 16:13:00,
2013-05-30 12:19:00,83.8,71.7,30.05,WSW,250,0.0,0.0,67,0.00,,,0.00,Wunderground v.1.15,2013-05-30 16:19:00,
2013-05-30 12:25:00,83.9,71.3,30.05,WSW,242,0.0,0.0,66,0.00,,,0.00,Wunderground v.1.15,2013-05-30 16:25:00,
2013-05-30 12:31:00,83.9,69.5,30.05,North,10,0.0,0.0,62,0.00,,,0.00,Wunderground v.1.15,2013-05-30 16:31:00,
2013-05-30 12:37:00,83.7,69.3,30.05,NW,309,0.0,0.0,62,0.00,,,0.00,Wunderground v.1.15,2013-05-30 16:37:00,
2013-05-30 12:43:00,83.8,69.9,30.05,WNW,295,0.0,0.0,63,0.00,,,0.00,Wunderground v.1.15,2013-05-30 16:43:00,
2013-05-30 12:49:00,84.1,71.5,30.05,West,280,0.0,0.0,66,0.00,,,0.00,Wunderground v.1.15,2013-05-30 16:49:00,
2013-05-30 12:54:00,84.5,70.5,30.05,NNE,29,0.0,0.0,63,0.00,,,0.00,Wunderground v.1.15,2013-05-30 16:54:00,
2013-05-30 13:01:00,84.2,69.3,30.04,WNW,290,0.0,0.0,61,0.00,,,0.00,Wunderground v.1.15,2013-05-30 17:01:00,
2013-05-30 13:06:00,84.3,70.3,30.04,WNW,288,0.0,0.0,63,0.00,,,0.00,Wunderground v.1.15,2013-05-30 17:06:00,
2013-05-30 13:12:00,84.8,71.7,30.04,NNE,25,0.0,0.0,65,0.00,,,0.00,Wunderground v.1.15,2013-05-30 17:12:00,
2013-05-30 13:18:00,84.3,70.8,30.04,NW,313,0.0,0.0,64,0.00,,,0.00,Wunderground v.1.15,2013-05-30 17:18:00,
2013-05-30 13:23:00,84.4,71.8,30.04,West,277,0.0,0.0,66,0.00,,,0.00,Wunderground v.1.15,2013-05-30 17:23:00,
2013-05-30 13:29:00,84.1,69.7,30.04,West,268,0.0,0.0,62,0.00,,,0.00,Wunderground v.1.15,2013-05-30 17:29:00,
2013-05-30 13:35:00,84.3,71.2,30.04,West,275,0.0,0.0,65,0.00,,,0.00,Wunderground v.1.15,2013-05-30 17:35:00,
2013-05-30 13:41:00,84.3,70.8,30.04,WNW,298,0.0,0.0,64,0.00,,,0.00,Wunderground v.1.15,2013-05-30 17:41:00,
2013-05-30 13:46:00,84.7,71.2,30.03,West,277,0.0,0.0,64,0.00,,,0.00,Wunderground v.1.15,2013-05-30 17:46:00,
2013-05-30 13:53:00,85.3,69.8,30.03,West,279,0.0,0.0,60,0.00,,,0.00,Wunderground v.1.15,2013-05-30 17:53:00,
2013-05-30 13:58:00,85.3,70.3,30.03,NE,40,0.0,0.0,61,0.00,,,0.00,Wunderground v.1.15,2013-05-30 17:58:00,
2013-05-30 14:06:00,85.1,70.6,30.03,NW,319,0.0,0.0,62,0.00,,,0.00,Wunderground v.1.15,2013-05-30 18:06:00,
2013-05-30 14:11:00,84.9,70.4,30.03,West,275,0.0,0.0,62,0.00,,,0.00,Wunderground v.1.15,2013-05-30 18:11:00,
2013-05-30 14:17:00,84.3,70.3,30.02,NNE,15,0.0,0.0,63,0.00,,,0.00,Wunderground v.1.15,2013-05-30 18:17:00,
2013-05-30 14:22:00,84.2,71.2,30.02,NW,311,0.0,0.0,65,0.00,,,0.00,Wunderground v.1.15,2013-05-30 18:22:00,
2013-05-30 14:28:00,84.0,72.3,30.02,NW,323,0.0,0.0,68,0.00,,,0.00,Wunderground v.1.15,2013-05-30 18:28:00,
2013-05-30 14:33:00,84.4,71.3,30.02,NE,40,0.0,0.0,65,0.00,,,0.00,Wunderground v.1.15,2013-05-30 18:33:00,
2013-05-30 14:39:00,85.1,71.1,30.02,NW,318,0.0,0.0,63,0.00,,,0.00,Wunderground v.1.15,2013-05-30 18:39:00,
2013-05-30 14:45:00,85.2,70.2,30.02,WNW,288,0.0,0.0,61,0.00,,,0.00,Wunderground v.1.15,2013-05-30 18:45:00,
2013-05-30 14:51:00,84.9,71.4,30.02,WNW,294,0.0,0.0,64,0.00,,,0.00,Wunderground v.1.15,2013-05-30 18:51:00,
2013-05-30 14:56:00,85.3,71.3,30.01,NW,318,0.0,0.0,63,0.00,,,0.00,Wunderground v.1.15,2013-05-30 18:56:00,
2013-05-30 15:03:00,85.8,70.8,30.01,NW,314,0.0,0.0,61,0.00,,,0.00,Wunderground v.1.15,2013-05-30 19:03:00,
2013-05-30 15:08:00,85.7,70.2,30.01,WNW,301,0.0,0.0,60,0.00,,,0.00,Wunderground v.1.15,2013-05-30 19:08:00,
2013-05-30 15:13:00,85.3,71.7,30.01,North,355,0.0,0.0,64,0.00,,,0.00,Wunderground v.1.15,2013-05-30 19:13:00,
2013-05-30 15:18:00,85.5,71.0,30.01,NNE,22,0.0,0.0,62,0.00,,,0.00,Wunderground v.1.15,2013-05-30 19:18:00,
2013-05-30 15:23:00,85.2,71.2,30.01,West,278,0.0,0.0,63,0.00,,,0.00,Wunderground v.1.15,2013-05-30 19:23:00,
2013-05-30 15:29:00,85.1,71.5,30.01,NNE,24,0.0,0.0,64,0.00,,,0.00,Wunderground v.1.15,2013-05-30 19:29:00,
2013-05-30 15:34:00,85.4,71.4,30.01,NW,306,0.0,0.0,63,0.00,,,0.00,Wunderground v.1.15,2013-05-30 19:34:00,
2013-05-30 15:41:00,85.3,71.7,30.00,NW,323,0.0,0.0,64,0.00,,,0.00,Wunderground v.1.15,2013-05-30 19:41:00,
2013-05-30 15:47:00,84.8,71.7,30.00,WNW,302,0.0,0.0,65,0.00,,,0.00,Wunderground v.1.15,2013-05-30 19:47:00,
2013-05-30 15:53:00,84.8,70.8,30.00,WNW,296,0.0,0.0,63,0.00,,,0.00,Wunderground v.1.15,2013-05-30 19:53:00,
2013-05-30 15:59:00,85.2,71.2,30.00,NW,321,0.0,0.0,63,0.00,,,0.00,Wunderground v.1.15,2013-05-30 19:59:00,
2013-05-30 16:06:00,85.5,71.5,30.00,WNW,293,0.0,0.0,63,0.00,,,0.00,Wunderground v.1.15,2013-05-30 20:06:00,
2013-05-30 16:11:00,85.4,70.9,30.00,West,271,0.0,0.0,62,0.00,,,0.00,Wunderground v.1.15,2013-05-30 20:11:00,
2013-05-30 16:18:00,85.4,70.9,30.00,NW,304,0.0,0.0,62,0.00,,,0.00,Wunderground v.1.15,2013-05-30 20:18:00,
2013-05-30 16:23:00,85.5,71.0,30.00,WNW,302,0.0,0.0,62,0.00,,,0.00,Wunderground v.1.15,2013-05-30 20:23:00,
2013-05-30 16:29:00,85.9,70.9,29.99,SW,235,0.0,0.0,61,0.00,,,0.00,Wunderground v.1.15,2013-05-30 20:29:00,
2013-05-30 16:34:00,86.6,72.5,29.99,NNW,343,0.0,0.0,63,0.00,,,0.00,Wunderground v.1.15,2013-05-30 20:34:00,
2013-05-30 16:40:00,87.1,72.0,30.00,NE,41,0.0,0.0,61,0.00,,,0.00,Wunderground v.1.15,2013-05-30 20:40:00,
2013-05-30 16:46:00,87.5,71.9,29.99,West,273,0.0,0.0,60,0.00,,,0.00,Wunderground v.1.15,2013-05-30 20:46:00,
2013-05-30 16:52:00,87.6,71.0,29.99,North,360,0.0,0.0,58,0.00,,,0.00,Wunderground v.1.15,2013-05-30 20:52:00,
2013-05-30 16:57:00,87.5,70.4,30.00,NNE,18,0.0,0.0,57,0.00,,,0.00,Wunderground v.1.15,2013-05-30 20:57:00,
2013-05-30 17:03:00,87.1,70.5,29.99,WNW,295,0.0,0.0,58,0.00,,,0.00,Wunderground v.1.15,2013-05-30 21:03:00,
2013-05-30 17:08:00,87.1,71.5,29.99,WNW,290,0.0,0.0,60,0.00,,,0.00,Wunderground v.1.15,2013-05-30 21:08:00,
2013-05-30 17:13:00,87.3,70.7,29.99,WNW,300,0.0,0.0,58,0.00,,,0.00,Wunderground v.1.15,2013-05-30 21:13:00,
2013-05-30 17:20:00,87.5,70.9,29.99,WNW,286,0.0,0.0,58,0.00,,,0.00,Wunderground v.1.15,2013-05-30 21:20:00,
2013-05-30 17:25:00,87.7,72.6,29.99,West,279,0.0,0.0,61,0.00,,,0.00,Wunderground v.1.15,2013-05-30 21:25:00,
2013-05-30 17:30:00,87.9,71.3,29.99,NNE,14,0.0,0.0,58,0.00,,,0.00,Wunderground v.1.15,2013-05-30 21:30:00,
2013-05-30 17:37:00,87.5,70.9,29.99,WNW,301,0.0,0.0,58,0.00,,,0.00,Wunderground v.1.15,2013-05-30 21:37:00,
2013-05-30 17:43:00,87.1,70.0,29.99,West,265,0.0,0.0,57,0.00,,,0.00,Wunderground v.1.15,2013-05-30 21:43:00,
2013-05-30 17:48:00,87.0,71.4,29.99,WNW,297,0.0,0.0,60,0.00,,,0.00,Wunderground v.1.15,2013-05-30 21:48:00,
2013-05-30 17:53:00,86.9,71.3,29.99,West,272,0.0,0.0,60,0.00,,,0.00,Wunderground v.1.15,2013-05-30 21:53:00,
2013-05-30 17:58:00,86.8,70.8,29.99,WNW,303,0.0,0.0,59,0.00,,,0.00,Wunderground v.1.15,2013-05-30 21:58:00,
2013-05-30 18:06:00,86.6,70.1,29.99,WNW,284,0.0,0.0,58,0.00,,,0.00,Wunderground v.1.15,2013-05-30 22:06:00,
2013-05-30 18:12:00,86.4,70.4,29.99,WNW,293,0.0,0.0,59,0.00,,,0.00,Wunderground v.1.15,2013-05-30 22:12:00,
2013-05-30 18:18:00,86.3,70.8,29.99,WNW,287,0.0,0.0,60,0.00,,,0.00,Wunderground v.1.15,2013-05-30 22:18:00,
2013-05-30 18:23:00,86.0,71.0,29.99,West,269,0.0,0.0,61,0.00,,,0.00,Wunderground v.1.15,2013-05-30 22:23:00,
2013-05-30 18:29:00,85.9,71.8,29.99,West,280,0.0,0.0,63,0.00,,,0.00,Wunderground v.1.15,2013-05-30 22:29:00,
2013-05-30 18:36:00,85.6,70.6,29.99,WNW,292,0.0,0.0,61,0.00,,,0.00,Wunderground v.1.15,2013-05-30 22:36:00,
2013-05-30 18:42:00,85.4,71.4,29.99,NW,316,0.0,0.0,63,0.00,,,0.00,Wunderground v.1.15,2013-05-30 22:42:00,
2013-05-30 18:48:00,85.0,70.5,29.99,WNW,295,0.0,0.0,62,0.00,,,0.00,Wunderground v.1.15,2013-05-30 22:48:00,
2013-05-30 18:53:00,84.7,70.7,29.99,West,267,0.0,0.0,63,0.00,,,0.00,Wunderground v.1.15,2013-05-30 22:53:00,
2013-05-30 18:59:00,84.2,71.6,29.99,WNW,300,0.0,0.0,66,0.00,,,0.00,Wunderground v.1.15,2013-05-30 22:59:00,
2013-05-30 19:06:00,83.6,71.5,29.99,WNW,302,0.0,0.0,67,0.00,,,0.00,Wunderground v.1.15,2013-05-30 23:06:00,
2013-05-30 19:12:00,83.2,71.1,29.99,NW,321,0.0,0.0,67,0.00,,,0.00,Wunderground v.1.15,2013-05-30 23:12:00,
2013-05-30 19:18:00,82.7,71.5,30.00,NW,321,0.0,0.0,69,0.00,,,0.00,Wunderground v.1.15,2013-05-30 23:18:00,
2013-05-30 19:23:00,82.3,71.5,30.00,NW,321,0.0,0.0,70,0.00,,,0.00,Wunderground v.1.15,2013-05-30 23:23:00,
2013-05-30 19:29:00,81.9,71.6,30.00,NW,321,0.0,0.0,71,0.00,,,0.00,Wunderground v.1.15,2013-05-30 23:29:00,
2013-05-30 19:35:00,81.3,71.8,30.00,NW,321,0.0,0.0,73,0.00,,,0.00,Wunderground v.1.15,2013-05-30 23:35:00,
2013-05-30 19:41:00,80.8,71.7,30.00,NW,321,0.0,0.0,74,0.00,,,0.00,Wunderground v.1.15,2013-05-30 23:41:00,
2013-05-30 19:46:00,80.3,71.6,30.00,NW,321,0.0,0.0,75,0.00,,,0.00,Wunderground v.1.15,2013-05-30 23:46:00,
2013-05-30 19:51:00,79.8,71.9,30.00,NW,321,0.0,0.0,77,0.00,,,0.00,Wunderground v.1.15,2013-05-30 23:51:00,
2013-05-30 19:56:00,79.2,71.7,30.00,NW,321,0.0,0.0,78,0.00,,,0.00,Wunderground v.1.15,2013-05-30 23:56:00,
2013-05-30 20:01:00,78.7,71.6,30.00,NW,321,0.0,0.0,79,0.00,,,0.00,Wunderground v.1.15,2013-05-31 00:01:00,
2013-05-30 20:07:00,78.3,72.0,30.00,NW,321,0.0,0.0,81,0.00,,,0.00,Wunderground v.1.15,2013-05-31 00:07:00,
2013-05-30 20:13:00,77.7,72.1,30.00,NW,321,0.0,0.0,83,0.00,,,0.00,Wunderground v.1.15,2013-05-31 00:13:00,
2013-05-30 20:19:00,77.2,71.6,30.00,NW,321,0.0,0.0,83,0.00,,,0.00,Wunderground v.1.15,2013-05-31 00:19:00,
2013-05-30 20:25:00,76.6,71.4,30.00,NW,321,0.0,0.0,84,0.00,,,0.00,Wunderground v.1.15,2013-05-31 00:25:00,
2013-05-30 20:31:00,76.1,71.3,30.01,NW,321,0.0,0.0,85,0.00,,,0.00,Wunderground v.1.15,2013-05-31 00:31:00,
2013-05-30 20:37:00,75.6,70.8,30.01,NW,321,0.0,0.0,85,0.00,,,0.00,Wunderground v.1.15,2013-05-31 00:37:00,
2013-05-30 20:43:00,75.0,70.5,30.01,NW,321,0.0,0.0,86,0.00,,,0.00,Wunderground v.1.15,2013-05-31 00:43:00,
2013-05-30 20:48:00,74.6,70.1,30.01,NW,321,0.0,0.0,86,0.00,,,0.00,Wunderground v.1.15,2013-05-31 00:48:00,
2013-05-30 20:53:00,74.2,69.7,30.01,NW,321,0.0,0.0,86,0.00,,,0.00,Wunderground v.1.15,2013-05-31 00:53:00,
2013-05-30 20:58:00,73.8,69.3,30.01,NW,321,0.0,0.0,86,0.00,,,0.00,Wunderground v.1.15,2013-05-31 00:58:00,
2013-05-30 21:03:00,73.5,69.4,30.01,NW,321,0.0,0.0,87,0.00,,,0.00,Wunderground v.1.15,2013-05-31 01:03:00,
2013-05-30 21:08:00,73.1,69.0,30.01,NW,321,0.0,0.0,87,0.00,,,0.00,Wunderground v.1.15,2013-05-31 01:08:00,
2013-05-30 21:14:00,72.7,68.6,30.01,NW,321,0.0,0.0,87,0.00,,,0.00,Wunderground v.1.15,2013-05-31 01:14:00,
2013-05-30 21:19:00,72.4,68.3,30.01,NW,321,0.0,0.0,87,0.00,,,0.00,Wunderground v.1.15,2013-05-31 01:19:00,
2013-05-30 21:25:00,72.0,68.2,30.01,NW,321,0.0,0.0,88,0.00,,,0.00,Wunderground v.1.15,2013-05-31 01:25:00,
2013-05-30 21:30:00,71.7,68.0,30.01,NW,321,0.0,0.0,88,0.00,,,0.00,Wunderground v.1.15,2013-05-31 01:30:00,
2013-05-30 21:36:00,71.4,67.7,30.01,NW,321,0.0,0.0,88,0.00,,,0.00,Wunderground v.1.15,2013-05-31 01:36:00,
2013-05-30 21:41:00,71.2,67.5,30.01,NW,321,0.0,0.0,88,0.00,,,0.00,Wunderground v.1.15,2013-05-31 01:41:00,
2013-05-30 21:46:00,71.0,67.3,30.02,NW,321,0.0,0.0,88,0.00,,,0.00,Wunderground v.1.15,2013-05-31 01:46:00,
2013-05-30 21:51:00,70.8,67.1,30.02,NW,321,0.0,0.0,88,0.00,,,0.00,Wunderground v.1.15,2013-05-31 01:51:00,
2013-05-30 21:56:00,70.6,66.9,30.02,NW,321,0.0,0.0,88,0.00,,,0.00,Wunderground v.1.15,2013-05-31 01:56:00,
2013-05-30 22:02:00,70.3,66.6,30.02,NW,321,0.0,0.0,88,0.00,,,0.00,Wunderground v.1.15,2013-05-31 02:02:00,
2013-05-30 22:07:00,70.2,66.5,30.02,NW,321,0.0,0.0,88,0.00,,,0.00,Wunderground v.1.15,2013-05-31 02:07:00,
2013-05-30 22:13:00,69.9,66.2,30.02,NW,321,0.0,0.0,88,0.00,,,0.00,Wunderground v.1.15,2013-05-31 02:13:00,
2013-05-30 22:19:00,69.7,66.0,30.02,NW,322,0.0,0.0,88,0.00,,,0.00,Wunderground v.1.15,2013-05-31 02:19:00,
2013-05-30 22:25:00,69.5,65.8,30.02,NW,322,0.0,0.0,88,0.00,,,0.00,Wunderground v.1.15,2013-05-31 02:25:00,
2013-05-30 22:31:00,69.3,65.6,30.02,NW,322,0.0,0.0,88,0.00,,,0.00,Wunderground v.1.15,2013-05-31 02:31:00,
2013-05-30 22:36:00,69.0,65.3,30.02,NW,321,0.0,0.0,88,0.00,,,0.00,Wunderground v.1.15,2013-05-31 02:36:00,
2013-05-30 22:42:00,68.9,65.2,30.03,NW,321,0.0,0.0,88,0.00,,,0.00,Wunderground v.1.15,2013-05-31 02:42:00,
2013-05-30 22:48:00,68.6,64.9,30.03,NW,321,0.0,0.0,88,0.00,,,0.00,Wunderground v.1.15,2013-05-31 02:48:00,
2013-05-30 22:53:00,68.5,64.8,30.03,NW,321,0.0,0.0,88,0.00,,,0.00,Wunderground v.1.15,2013-05-31 02:53:00,
2013-05-30 22:58:00,68.3,64.6,30.03,NW,321,0.0,0.0,88,0.00,,,0.00,Wunderground v.1.15,2013-05-31 02:58:00,
2013-05-30 23:04:00,68.2,64.5,30.03,NW,321,0.0,0.0,88,0.00,,,0.00,Wunderground v.1.15,2013-05-31 03:04:00,
2013-05-30 23:10:00,68.0,64.3,30.03,NW,321,0.0,0.0,88,0.00,,,0.00,Wunderground v.1.15,2013-05-31 03:10:00,
2013-05-30 23:16:00,67.8,64.1,30.03,NW,321,0.0,0.0,88,0.00,,,0.00,Wunderground v.1.15,2013-05-31 03:16:00,
2013-05-30 23:22:00,67.7,64.0,30.03,NW,321,0.0,0.0,88,0.00,,,0.00,Wunderground v.1.15,2013-05-31 03:22:00,
2013-05-30 23:27:00,67.5,63.8,30.03,NW,321,0.0,0.0,88,0.00,,,0.00,Wunderground v.1.15,2013-05-31 03:27:00,
2013-05-30 23:33:00,67.4,63.7,30.03,NW,321,0.0,0.0,88,0.00,,,0.00,Wunderground v.1.15,2013-05-31 03:33:00,
2013-05-30 23:38:00,67.3,63.6,30.02,NW,321,0.0,0.0,88,0.00,,,0.00,Wunderground v.1.15,2013-05-31 03:38:00,
2013-05-30 23:45:00,67.1,63.4,30.03,NW,321,0.0,0.0,88,0.00,,,0.00,Wunderground v.1.15,2013-05-31 03:45:00,
2013-05-30 23:51:00,67.0,63.3,30.03,NW,321,0.0,0.0,88,0.00,,,0.00,Wunderground v.1.15,2013-05-31 03:51:00,
2013-05-30 23:56:00,66.8,63.1,30.03,NW,321,0.0,0.0,88,0.00,,,0.00,Wunderground v.1.15,2013-05-31 03:56:00,